createdAt,value
2018-05-11T00:01:47.458Z,12.50
2018-05-11T00:04:13.492Z,11.33
2018-05-11T00:06:39.525Z,13.03
2018-05-11T00:09:05.530Z,13.10
2018-05-11T00:11:31.565Z,12.43
2018-05-11T00:13:57.591Z,12.10
2018-05-11T00:16:24.359Z,12.23
2018-05-11T00:18:50.364Z,13.30
2018-05-11T00:21:16.388Z,13.70
2018-05-11T00:23:42.393Z,14.10
2018-05-11T00:26:08.423Z,13.50
2018-05-11T00:28:35.218Z,13.90
2018-05-11T00:31:01.247Z,14.30
2018-05-11T00:33:27.272Z,14.87
2018-05-11T00:35:53.278Z,15.40
2018-05-11T00:38:20.041Z,14.10
2018-05-11T00:40:46.049Z,15.30
2018-05-11T00:43:12.075Z,15.30
2018-05-11T00:45:38.099Z,16.30
2018-05-11T00:48:04.112Z,15.00
2018-05-11T00:50:30.130Z,15.37
2018-05-11T00:52:56.149Z,15.53
2018-05-11T00:55:34.590Z,15.57
2018-05-11T00:58:00.617Z,15.33
2018-05-11T01:00:27.377Z,15.33
2018-05-11T01:02:53.418Z,15.53
2018-05-11T01:05:19.433Z,16.63
2018-05-11T01:07:46.185Z,18.70
2018-05-11T01:10:12.948Z,17.17
2018-05-11T01:12:39.722Z,18.40
2018-05-11T01:15:05.762Z,18.50
2018-05-11T01:17:31.804Z,18.83
2018-05-11T01:19:57.836Z,20.57
2018-05-11T01:22:23.854Z,19.77
2018-05-11T01:24:49.882Z,20.17
2018-05-11T01:27:15.940Z,19.13
2018-05-11T01:29:41.973Z,20.13
2018-05-11T01:32:07.997Z,19.07
2018-05-11T01:34:34.019Z,20.37
2018-05-11T01:37:00.781Z,21.47
2018-05-11T01:39:26.811Z,21.07
2018-05-11T01:41:53.734Z,21.50
2018-05-11T01:44:19.777Z,20.20
2018-05-11T01:46:45.813Z,19.77
2018-05-11T01:49:12.593Z,19.93
2018-05-11T01:51:39.353Z,19.37
2018-05-11T01:54:06.130Z,19.20
2018-05-11T01:56:32.155Z,18.67
2018-05-11T01:58:58.176Z,20.70
2018-05-11T02:01:24.940Z,20.60
2018-05-11T02:03:50.997Z,20.27
2018-05-11T02:06:17.036Z,19.80
2018-05-11T02:08:43.090Z,20.30
2018-05-11T02:11:09.121Z,20.47
2018-05-11T02:13:35.177Z,19.60
2018-05-11T02:16:01.205Z,19.77
2018-05-11T02:18:27.238Z,20.90
2018-05-11T02:20:53.288Z,20.87
2018-05-11T02:23:19.329Z,19.00
2018-05-11T02:25:45.365Z,21.27
2018-05-11T02:28:11.390Z,20.17
2018-05-11T02:30:37.590Z,18.60
2018-05-11T02:33:03.632Z,19.57
2018-05-11T02:35:29.687Z,18.30
2018-05-11T02:37:55.718Z,19.10
2018-05-11T02:40:21.755Z,19.93
2018-05-11T02:42:47.790Z,18.07
2018-05-11T02:45:13.830Z,19.47
2018-05-11T02:47:46.753Z,18.43
2018-05-11T02:50:12.791Z,18.70
2018-05-11T02:52:39.563Z,18.00
2018-05-11T02:55:05.609Z,20.17
2018-05-11T02:57:32.373Z,19.97
2018-05-11T02:59:58.399Z,18.80
2018-05-11T03:02:25.162Z,19.33
2018-05-11T03:04:51.212Z,17.63
2018-05-11T03:07:17.253Z,18.93
2018-05-11T03:09:43.286Z,18.30
2018-05-11T03:12:09.326Z,17.20
2018-05-11T03:14:35.359Z,18.13
2018-05-11T03:17:01.389Z,17.87
2018-05-11T03:19:27.426Z,17.60
2018-05-11T03:21:53.458Z,19.17
2018-05-11T03:24:19.493Z,17.53
2018-05-11T03:26:45.547Z,17.57
2018-05-11T03:29:11.585Z,17.57
2018-05-11T03:31:37.619Z,17.70
2018-05-11T03:34:03.658Z,19.30
2018-05-11T03:36:29.681Z,17.93
2018-05-11T03:38:55.714Z,19.87
2018-05-11T03:41:21.764Z,19.90
2018-05-11T03:43:47.821Z,20.40
2018-05-11T03:46:13.853Z,20.50
2018-05-11T03:48:39.891Z,22.40
2018-05-11T03:51:05.928Z,21.90
2018-05-11T03:53:31.974Z,19.57
2018-05-11T03:55:58.020Z,19.87
2018-05-11T03:58:24.057Z,21.43
2018-05-11T04:00:50.843Z,20.17
2018-05-11T04:03:30.056Z,21.20
2018-05-11T04:06:02.088Z,20.63
2018-05-11T04:08:43.157Z,19.23
2018-05-11T04:11:09.941Z,19.77
2018-05-11T04:13:35.958Z,17.73
2018-05-11T04:16:01.989Z,17.90
2018-05-11T04:18:28.025Z,18.40
2018-05-11T04:20:54.061Z,18.47
2018-05-11T04:23:20.082Z,16.50
2018-05-11T04:25:46.862Z,17.80
2018-05-11T04:28:12.894Z,18.93
2018-05-11T04:30:38.921Z,17.10
2018-05-11T04:33:04.973Z,15.27
2018-05-11T04:35:31.009Z,16.70
2018-05-11T04:37:57.043Z,15.40
2018-05-11T04:40:23.070Z,15.83
2018-05-11T04:42:49.114Z,15.40
2018-05-11T04:45:15.172Z,13.30
2018-05-11T04:47:41.189Z,12.63
2018-05-11T04:50:07.217Z,12.60
2018-05-11T04:52:33.258Z,10.97
2018-05-11T04:54:59.277Z,10.80
2018-05-11T04:57:26.053Z,12.43
2018-05-11T04:59:52.081Z,10.47
2018-05-11T05:02:18.185Z,9.50
2018-05-11T05:04:44.970Z,8.97
2018-05-11T05:07:10.996Z,10.23
2018-05-11T05:09:37.017Z,8.33
2018-05-11T05:12:03.798Z,7.87
2018-05-11T05:14:29.822Z,8.27
2018-05-11T05:16:56.590Z,9.17
2018-05-11T05:19:22.665Z,8.40
2018-05-11T05:21:48.702Z,7.73
2018-05-11T05:24:14.734Z,8.40
2018-05-11T05:26:40.766Z,8.10
2018-05-11T05:29:06.799Z,8.70
2018-05-11T05:31:32.838Z,7.57
2018-05-11T05:33:58.869Z,7.37
2018-05-11T05:36:24.901Z,7.93
2018-05-11T05:38:50.934Z,7.70
2018-05-11T05:41:16.958Z,8.03
2018-05-11T05:43:42.985Z,6.87
2018-05-11T05:46:09.015Z,7.27
2018-05-11T05:48:35.054Z,7.57
2018-05-11T05:51:01.081Z,7.13
2018-05-11T05:53:27.118Z,7.47
2018-05-11T05:55:53.157Z,7.10
2018-05-11T05:58:19.199Z,7.50
2018-05-11T06:00:45.240Z,7.10
2018-05-11T06:03:11.287Z,6.70
2018-05-11T06:05:37.311Z,6.47
2018-05-11T06:08:03.348Z,6.77
2018-05-11T06:10:29.368Z,7.03
2018-05-11T06:12:55.418Z,7.87
2018-05-11T06:15:21.439Z,6.40
2018-05-11T06:17:47.509Z,6.90
2018-05-11T06:20:13.503Z,6.83
2018-05-11T06:22:39.513Z,7.50
2018-05-11T06:25:05.543Z,6.63
2018-05-11T06:27:32.310Z,7.23
2018-05-11T06:29:59.077Z,7.33
2018-05-11T06:32:25.111Z,7.73
2018-05-11T06:34:51.882Z,7.47
2018-05-11T06:37:17.890Z,7.90
2018-05-11T06:39:44.663Z,9.60
2018-05-11T06:42:10.686Z,7.10
2018-05-11T06:44:37.446Z,8.00
2018-05-11T06:47:03.462Z,10.50
2018-05-11T06:49:30.220Z,10.20
2018-05-11T06:51:56.983Z,12.00
2018-05-11T06:54:23.741Z,10.37
2018-05-11T06:56:49.765Z,10.50
2018-05-11T06:59:16.534Z,9.60
2018-05-11T07:01:42.550Z,8.97
2018-05-11T07:04:09.317Z,10.40
2018-05-11T07:06:35.338Z,9.00
2018-05-11T07:09:02.112Z,9.80
2018-05-11T07:11:28.130Z,9.33
2018-05-11T07:13:54.893Z,10.50
2018-05-11T07:16:20.914Z,12.43
2018-05-11T07:18:47.683Z,11.67
2018-05-11T07:21:13.766Z,11.97
2018-05-11T07:23:39.754Z,11.50
2018-05-11T07:26:05.778Z,10.43
2018-05-11T07:28:31.804Z,11.00
2018-05-11T07:30:58.565Z,12.00
2018-05-11T07:33:25.331Z,10.10
2018-05-11T07:35:51.362Z,11.60
2018-05-11T07:38:18.118Z,12.40
2018-05-11T07:40:44.142Z,12.73
2018-05-11T07:43:10.963Z,13.37
2018-05-11T07:45:36.952Z,14.77
2018-05-11T07:48:02.974Z,15.77
2018-05-11T07:50:29.737Z,16.67
2018-05-11T07:52:55.764Z,16.23
2018-05-11T07:55:21.786Z,14.27
2018-05-11T07:57:48.547Z,14.00
2018-05-11T08:00:14.570Z,16.60
2018-05-11T08:02:41.331Z,16.97
2018-05-11T08:05:08.111Z,16.20
2018-05-11T08:07:34.117Z,15.40
2018-05-11T08:10:00.889Z,17.87
2018-05-11T08:12:26.900Z,18.20
2018-05-11T08:14:53.663Z,19.13
2018-05-11T08:17:20.437Z,18.93
2018-05-11T08:19:46.456Z,18.63
2018-05-11T08:22:12.483Z,18.77
2018-05-11T08:24:39.245Z,18.93
2018-05-11T08:27:06.015Z,19.40
2018-05-11T08:29:32.038Z,19.40
2018-05-11T08:31:58.058Z,20.13
2018-05-11T08:34:24.817Z,19.70
2018-05-11T08:36:51.573Z,19.10
2018-05-11T08:39:18.322Z,18.90
2018-05-11T08:41:45.086Z,19.13
2018-05-11T08:44:11.101Z,18.33
2018-05-11T08:46:37.866Z,18.00
2018-05-11T08:49:04.622Z,16.97
2018-05-11T08:51:30.647Z,18.30
2018-05-11T08:53:57.393Z,17.77
2018-05-11T08:56:24.150Z,17.50
2018-05-11T08:58:50.905Z,16.97
2018-05-11T09:01:17.663Z,18.60
2018-05-11T09:03:44.457Z,18.20
2018-05-11T09:06:10.487Z,18.50
2018-05-11T09:08:36.659Z,18.27
2018-05-11T09:11:02.563Z,17.60
2018-05-11T09:13:28.610Z,16.93
2018-05-11T09:15:54.646Z,16.60
2018-05-11T09:18:20.691Z,18.00
2018-05-11T09:20:46.732Z,14.03
2018-05-11T09:23:12.751Z,13.90
2018-05-11T09:25:38.766Z,13.97
2018-05-11T09:28:04.794Z,15.20
2018-05-11T09:30:30.823Z,15.60
2018-05-11T09:32:56.849Z,14.40
2018-05-11T09:35:22.884Z,12.83
2018-05-11T09:37:48.906Z,14.60
2018-05-11T09:40:15.669Z,15.43
2018-05-11T09:42:42.429Z,14.53
2018-05-11T09:45:08.509Z,16.00
2018-05-11T09:47:34.564Z,15.87
2018-05-11T09:50:00.586Z,16.73
2018-05-11T09:52:26.633Z,16.07
2018-05-11T09:54:52.657Z,15.23
2018-05-11T09:57:18.682Z,15.20
2018-05-11T09:59:44.730Z,16.97
2018-05-11T10:02:10.752Z,15.40
2018-05-11T10:04:36.794Z,16.50
2018-05-11T10:07:02.829Z,15.27
2018-05-11T10:09:28.865Z,17.30
2018-05-11T10:11:54.893Z,18.00
2018-05-11T10:14:20.931Z,16.60
2018-05-11T10:16:46.960Z,16.23
2018-05-11T10:19:12.994Z,19.53
2018-05-11T10:21:39.021Z,16.40
2018-05-11T10:24:05.789Z,16.00
2018-05-11T10:26:31.810Z,16.10
2018-05-11T10:28:57.900Z,15.70
2018-05-11T10:31:23.913Z,15.30
2018-05-11T10:33:49.958Z,16.80
2018-05-11T10:36:15.990Z,15.70
2018-05-11T10:38:42.023Z,16.10
2018-05-11T10:41:08.045Z,15.93
2018-05-11T10:43:34.211Z,15.40
2018-05-11T10:46:00.246Z,14.70
2018-05-11T10:48:26.378Z,14.20
2018-05-11T10:50:52.361Z,15.10
2018-05-11T10:53:18.417Z,14.63
2018-05-11T10:55:44.448Z,15.70
2018-05-11T10:58:10.472Z,15.60
2018-05-11T11:00:36.502Z,15.43
2018-05-11T11:03:02.523Z,14.80
2018-05-11T11:05:29.294Z,15.60
2018-05-11T11:07:55.305Z,17.47
2018-05-11T11:10:22.074Z,16.60
2018-05-11T11:12:48.094Z,17.00
2018-05-11T11:15:14.851Z,18.27
2018-05-11T11:17:40.872Z,18.00
2018-05-11T11:20:07.633Z,16.53
2018-05-11T11:22:34.386Z,15.30
2018-05-11T11:25:01.142Z,15.87
2018-05-11T11:27:27.154Z,18.03
2018-05-11T11:29:53.198Z,17.03
2018-05-11T11:32:19.951Z,15.67
2018-05-11T11:34:46.733Z,16.50
2018-05-11T11:37:13.454Z,17.33
2018-05-11T11:39:40.225Z,17.03
2018-05-11T11:42:06.984Z,17.57
2018-05-11T11:44:32.990Z,17.67
2018-05-11T11:46:59.033Z,18.20
2018-05-11T11:49:25.866Z,15.90
2018-05-11T11:51:51.903Z,16.20
2018-05-11T11:54:17.916Z,16.47
2018-05-11T11:56:43.946Z,15.37
2018-05-11T11:59:09.958Z,17.13
2018-05-11T12:01:36.038Z,14.90
2018-05-11T12:04:02.014Z,16.00
2018-05-11T12:06:28.770Z,14.53
2018-05-11T12:08:54.866Z,14.53
2018-05-11T12:11:21.546Z,13.90
2018-05-11T12:13:48.293Z,14.77
2018-05-11T12:16:15.072Z,14.80
2018-05-11T12:18:41.090Z,13.53
2018-05-11T12:21:07.854Z,13.60
2018-05-11T12:23:33.871Z,13.90
2018-05-11T12:26:00.668Z,14.73
2018-05-11T12:28:26.681Z,13.30
2018-05-11T12:30:52.701Z,13.37
2018-05-11T12:33:19.461Z,12.80
2018-05-11T12:35:46.230Z,12.13
2018-05-11T12:38:12.252Z,15.20
2018-05-11T12:40:38.271Z,13.07
2018-05-11T12:43:05.032Z,14.97
2018-05-11T12:45:31.796Z,13.43
2018-05-11T12:47:57.893Z,14.80
2018-05-11T12:50:23.957Z,15.57
2018-05-11T12:52:50.760Z,16.70
2018-05-11T12:55:16.779Z,16.90
2018-05-11T12:57:42.807Z,17.73
2018-05-11T13:00:08.886Z,17.97
2018-05-11T13:02:34.928Z,17.13
2018-05-11T13:05:00.965Z,16.10
2018-05-11T13:07:27.001Z,13.80
2018-05-11T13:09:54.394Z,15.47
2018-05-11T13:12:21.161Z,14.67
2018-05-11T13:14:47.979Z,15.63
2018-05-11T13:17:14.757Z,13.50
2018-05-11T13:19:41.521Z,14.00
2018-05-11T13:22:08.287Z,16.37
2018-05-11T13:24:34.357Z,15.57
2018-05-11T13:27:00.537Z,13.70
2018-05-11T13:29:26.713Z,14.23
2018-05-11T13:31:53.210Z,13.57
2018-05-11T13:34:20.422Z,14.60
2018-05-11T13:36:46.434Z,15.53
2018-05-11T13:39:12.450Z,14.90
2018-05-11T13:41:39.291Z,15.80
2018-05-11T13:44:06.092Z,14.87
2018-05-11T13:46:32.178Z,15.80
2018-05-11T13:48:58.946Z,15.80
2018-05-11T13:51:25.774Z,14.30
2018-05-11T13:53:51.821Z,13.77
2018-05-11T13:56:18.669Z,13.17
2018-05-11T13:58:44.612Z,12.80
2018-05-11T14:01:11.443Z,14.37
2018-05-11T14:03:38.270Z,14.20
2018-05-11T14:06:04.385Z,13.00
2018-05-11T14:08:30.418Z,14.43
2018-05-11T14:10:56.611Z,13.87
2018-05-11T14:13:22.641Z,14.77
2018-05-11T14:15:48.670Z,14.87
2018-05-11T14:18:14.893Z,14.33
2018-05-11T14:20:40.909Z,15.13
2018-05-11T14:23:06.933Z,14.20
2018-05-11T14:25:33.168Z,14.87
2018-05-11T14:27:59.957Z,14.10
2018-05-11T14:30:25.985Z,14.70
2018-05-11T14:32:52.005Z,13.70
2018-05-11T14:35:18.098Z,13.60
2018-05-11T14:37:44.134Z,14.03
2018-05-11T14:40:10.361Z,14.47
2018-05-11T14:42:36.397Z,13.47
2018-05-11T14:45:02.433Z,13.53
2018-05-11T14:47:28.450Z,16.40
2018-05-11T14:49:54.477Z,14.47
2018-05-11T14:52:20.494Z,13.40
2018-05-11T14:54:46.537Z,13.23
2018-05-11T14:57:12.574Z,14.50
2018-05-11T14:59:38.590Z,14.53
2018-05-11T15:02:05.347Z,15.13
2018-05-11T15:04:31.370Z,14.20
2018-05-11T15:06:58.307Z,15.30
2018-05-11T15:09:25.825Z,15.00
2018-05-11T15:11:51.846Z,13.47
2018-05-11T15:14:17.865Z,14.23
2018-05-11T15:16:44.619Z,14.00
2018-05-11T15:19:11.382Z,11.37
2018-05-11T15:21:38.145Z,12.13
2018-05-11T15:24:04.173Z,11.83
2018-05-11T15:26:31.096Z,14.07
2018-05-11T15:28:57.130Z,13.10
2018-05-11T15:31:23.151Z,13.97
2018-05-11T15:33:49.170Z,13.70
2018-05-11T15:36:15.186Z,13.23
2018-05-11T15:38:41.226Z,14.70
2018-05-11T15:41:07.245Z,12.80
2018-05-11T15:43:33.263Z,13.87
2018-05-11T15:46:00.052Z,14.73
2018-05-11T15:48:26.055Z,13.93
2018-05-11T15:50:52.830Z,14.23
2018-05-11T15:53:18.851Z,12.27
2018-05-11T15:55:45.609Z,14.70
2018-05-11T15:58:11.625Z,16.63
2018-05-11T16:00:38.387Z,14.60
2018-05-11T16:03:05.170Z,15.17
2018-05-11T16:05:31.213Z,14.83
2018-05-11T16:07:57.237Z,14.13
2018-05-11T16:10:23.251Z,14.47
2018-05-11T16:12:50.119Z,12.97
2018-05-11T16:15:16.050Z,15.47
2018-05-11T16:17:42.052Z,16.20
2018-05-11T16:20:08.074Z,12.77
2018-05-11T16:22:34.081Z,13.50
2018-05-11T16:25:00.098Z,13.80
2018-05-11T16:27:26.124Z,20.67
2018-05-11T16:29:52.147Z,12.07
2018-05-11T16:32:18.921Z,26.00
2018-05-11T16:34:44.957Z,14.70
2018-05-11T16:37:10.994Z,17.70
2018-05-11T16:39:37.019Z,27.97
2018-05-11T16:42:03.778Z,21.97
2018-05-11T16:44:29.793Z,21.47
2018-05-11T16:46:56.551Z,15.60
2018-05-11T16:49:23.309Z,14.50
2018-05-11T16:51:49.330Z,14.80
2018-05-11T16:54:16.094Z,14.00
2018-05-11T16:56:42.113Z,13.20
2018-05-11T16:59:08.871Z,14.27
2018-05-11T17:01:35.625Z,13.27
2018-05-11T17:04:02.409Z,14.10
2018-05-11T17:06:28.470Z,15.47
2018-05-11T17:08:54.525Z,13.47
2018-05-11T17:11:20.558Z,13.40
2018-05-11T17:13:46.590Z,13.80
2018-05-11T17:16:12.619Z,14.80
2018-05-11T17:18:38.642Z,13.70
2018-05-11T17:21:04.694Z,14.97
2018-05-11T17:23:30.719Z,14.80
2018-05-11T17:25:56.804Z,14.67
2018-05-11T17:28:23.669Z,16.40
2018-05-11T17:30:49.690Z,15.90
2018-05-11T17:33:16.470Z,16.70
2018-05-11T17:35:42.569Z,15.47
2018-05-11T17:38:08.674Z,14.67
2018-05-11T17:40:34.722Z,15.63
2018-05-11T17:43:01.733Z,15.33
2018-05-11T17:45:27.797Z,15.17
2018-05-11T17:47:53.926Z,15.40
2018-05-11T17:50:20.693Z,15.83
2018-05-11T17:52:46.875Z,15.63
2018-05-11T17:55:13.642Z,16.57
2018-05-11T17:57:40.409Z,15.30
2018-05-11T18:00:06.553Z,16.20
2018-05-11T18:02:32.593Z,14.70
2018-05-11T18:04:58.898Z,16.13
2018-05-11T18:07:25.666Z,14.50
2018-05-11T18:09:51.683Z,14.23
2018-05-11T18:12:17.717Z,14.80
2018-05-11T18:14:43.714Z,15.40
2018-05-11T18:17:09.722Z,17.30
2018-05-11T18:19:35.742Z,17.47
2018-05-11T18:22:01.896Z,15.63
2018-05-11T18:24:27.918Z,17.60
2018-05-11T18:26:53.935Z,19.07
2018-05-11T18:29:20.693Z,17.50
2018-05-11T18:31:47.485Z,19.10
2018-05-11T18:34:13.553Z,17.50
2018-05-11T18:36:39.574Z,19.03
2018-05-11T18:39:05.607Z,18.03
2018-05-11T18:41:31.645Z,17.77
2018-05-11T18:43:57.790Z,17.00
2018-05-11T18:46:23.816Z,19.20
2018-05-11T18:48:49.914Z,18.90
2018-05-11T18:51:15.936Z,20.40
2018-05-11T18:53:42.441Z,20.57
2018-05-11T18:56:08.166Z,20.50
2018-05-11T18:58:34.210Z,19.90
2018-05-11T19:01:00.229Z,21.63
2018-05-11T19:03:26.283Z,22.07
2018-05-11T19:05:52.334Z,20.07
2018-05-11T19:08:18.353Z,19.20
2018-05-11T19:10:44.391Z,22.93
2018-05-11T19:13:10.427Z,21.40
2018-05-11T19:15:36.469Z,20.37
2018-05-11T19:18:02.856Z,20.50
2018-05-11T19:20:28.860Z,22.10
2018-05-11T19:22:55.635Z,20.87
2018-05-11T19:25:22.413Z,20.33
2018-05-11T19:27:48.447Z,19.80
2018-05-11T19:30:14.478Z,21.67
2018-05-11T19:32:40.557Z,21.23
2018-05-11T19:35:06.642Z,23.17
2018-05-11T19:37:32.668Z,22.83
2018-05-11T19:39:59.437Z,22.20
2018-05-11T19:42:25.538Z,24.33
2018-05-11T19:44:51.609Z,22.87
2018-05-11T19:47:17.629Z,23.87
2018-05-11T19:49:44.395Z,23.53
2018-05-11T19:52:10.441Z,27.73
2018-05-11T19:54:36.488Z,26.93
2018-05-11T19:57:02.557Z,27.10
2018-05-11T19:59:28.562Z,26.87
2018-05-11T20:01:54.594Z,26.87
2018-05-11T20:04:20.625Z,26.90
2018-05-11T20:06:46.682Z,25.77
2018-05-11T20:09:12.701Z,26.37
2018-05-11T20:11:38.830Z,25.40
2018-05-11T20:14:04.861Z,26.20
2018-05-11T20:16:30.887Z,26.73
2018-05-11T20:18:57.704Z,25.50
2018-05-11T20:21:25.238Z,26.73
2018-05-11T20:23:51.273Z,27.10
2018-05-11T20:26:17.366Z,26.70
2018-05-11T20:28:43.399Z,27.90
2018-05-11T20:31:09.660Z,26.50
2018-05-11T20:33:36.451Z,26.60
2018-05-11T20:36:02.514Z,28.60
2018-05-11T20:38:28.534Z,28.30
2018-05-11T20:40:54.575Z,28.73
2018-05-11T20:43:20.708Z,28.10
2018-05-11T20:45:46.747Z,27.93
2018-05-11T20:48:12.765Z,28.93
2018-05-11T20:50:38.797Z,27.50
2018-05-11T20:53:04.874Z,29.90
2018-05-11T20:55:30.910Z,30.63
2018-05-11T20:57:56.950Z,30.10
2018-05-11T21:00:23.027Z,30.07
2018-05-11T21:02:49.794Z,29.70
2018-05-11T21:05:15.831Z,28.87
2018-05-11T21:07:41.867Z,29.23
2018-05-11T21:10:07.948Z,32.03
2018-05-11T21:12:33.988Z,30.27
2018-05-11T21:15:00.038Z,31.13
2018-05-11T21:17:26.840Z,29.60
2018-05-11T21:19:52.880Z,32.30
2018-05-11T21:22:18.917Z,33.60
2018-05-11T21:24:44.953Z,29.30
2018-05-11T21:27:11.064Z,31.80
2018-05-11T21:29:37.038Z,33.50
2018-05-11T21:32:03.121Z,32.37
2018-05-11T21:34:36.771Z,31.30
2018-05-11T21:37:03.182Z,33.07
2018-05-11T21:39:30.060Z,33.97
2018-05-11T21:41:56.190Z,32.70
2018-05-11T21:44:22.219Z,31.90
2018-05-11T21:46:48.998Z,33.90
2018-05-11T21:49:15.034Z,32.53
2018-05-11T21:51:41.104Z,33.23
2018-05-11T21:54:07.136Z,32.17
2018-05-11T21:56:33.166Z,34.70
2018-05-11T21:58:59.187Z,32.80
2018-05-11T22:01:25.216Z,33.93
2018-05-11T22:03:51.243Z,32.60
2018-05-11T22:06:17.267Z,34.10
2018-05-11T22:08:44.026Z,34.00
2018-05-11T22:11:10.345Z,32.63
2018-05-11T22:13:37.125Z,35.30
2018-05-11T22:16:03.152Z,34.53
2018-05-11T22:18:30.001Z,35.00
2018-05-11T22:20:56.757Z,35.37
2018-05-11T22:23:23.525Z,33.57
2018-05-11T22:25:49.538Z,35.10
2018-05-11T22:28:16.377Z,32.80
2018-05-11T22:30:42.447Z,33.63
2018-05-11T22:33:08.466Z,32.23
2018-05-11T22:35:35.224Z,33.53
2018-05-11T22:38:02.154Z,35.93
2018-05-11T22:40:28.175Z,35.43
2018-05-11T22:42:54.190Z,35.10
2018-05-11T22:45:20.198Z,35.60
2018-05-11T22:47:46.278Z,38.27
2018-05-11T22:50:12.306Z,36.77
2018-05-11T22:52:38.331Z,35.33
2018-05-11T22:55:04.376Z,38.07
2018-05-11T22:57:30.390Z,38.43
2018-05-11T22:59:56.409Z,38.67
2018-05-11T23:02:23.191Z,38.00
2018-05-11T23:04:49.235Z,39.57
2018-05-11T23:07:15.270Z,38.37
2018-05-11T23:09:41.312Z,38.47
2018-05-11T23:12:07.333Z,40.27
2018-05-11T23:14:33.430Z,39.47
2018-05-11T23:16:59.445Z,39.77
2018-05-11T23:19:25.486Z,38.87
2018-05-11T23:21:51.511Z,41.10
2018-05-11T23:24:17.537Z,40.50
2018-05-11T23:26:43.591Z,40.40
2018-05-11T23:29:09.629Z,43.53
2018-05-11T23:31:35.659Z,41.17
2018-05-11T23:34:01.838Z,41.77
2018-05-11T23:36:28.666Z,43.83
2018-05-11T23:38:54.693Z,41.13
2018-05-11T23:41:20.714Z,40.90
2018-05-11T23:43:46.744Z,42.10
2018-05-11T23:46:12.862Z,40.53
2018-05-11T23:48:38.922Z,42.00
2018-05-11T23:51:04.954Z,42.70
2018-05-11T23:53:31.045Z,43.10
2018-05-11T23:55:57.886Z,42.80
2018-05-11T23:58:23.835Z,42.07
